Terminal Aerodrome Forecast
Issued by NWS Paducah, KY

Current Version | Previous Version | Text Only | Print | Product List | Glossary On
Versions: 1 2 3 4 5 6 7 8 9 10 11 12 13 14 15 16 17
000
FTUS43 KPAH 041256 AAB
TAFPAH
TAF AMD
KPAH 041256Z 0413/0512 00000KT 4SM BR SCT250
     FM041330 VRB03KT 6SM HZ FEW050
     FM050600 00000KT 4SM BR SKC=

USA.gov is the U.S. government's official web portal to all federal, state and local government web resources and services.